Centralia, Washington
Current Conditions -  °F | °C
As of 3:15 AM on Wednesday 22 Oct 2014 (Local Time) from KCLS Reporting Station
Light Rain Light Rain  
Wind Chill: 55°   Ceiling: 2600
Heat Index: 55°   Visibility: 9mi
Dew Point: 52°   Wind: 12mph
Humidity: 88%   Direction: 190°S
Pressure: 29.7"   Gusts: 20mph
Location:  46.73°N, 122.95°W
Report Text: KCLS 221015Z AUTO 19010G17KT 170V230 9SM -RA OVC026 13/11 A2970 RMK AO2
Loading
Personal Weather Stations






























Interactive Weather Map
Tropical Storm Tracking
New forecast layout! Learn more

10-Day Weather Forecast

Advertisements
Track Severe Weather on mobile